Angler Guide Weather for Wabush Lake -
Wabush Lake, Newfoundland Current Weather Conditions
Enter your "Place, State", US Zip Code or ICAO:  
Forecast Information Radar Information
Wabush Lake, Newfoundland, Canada  Lat: 52.92N, Lon: 66.87W
ICAO Used: CZUM
Current Conditions
Updated:
Sun & Moon Information:
Temp: N/A
Humidity: N/A
Wind Speed: N/A
Barometer: N/A
Dewpoint: N/A
Heat Index: N/A
Wind Chill: N/A
Civil Twilight: 7:30 AM ADT
Moonrise: 11:51 AM ADT Moon Phase:
Waxing Crescent Moon
Waxing Crescent Moon
Moonset: 8:41 PM ADT
Sunrise: 8:06 AM ADT
Sunset: 6:15 PM ADT
Civil Twilight: 6:50 PM ADT
Forecast for Wabush Lake, NF:
(Forecast based on TAF for )
0746 PM ADT MON NOV 06 2006
  
EVENINGOVERNIGHT
PARTLY CLOUDYPARTLY CLOUDY
Partly
Cloudy
Partly
Cloudy
TAF based forecast:
Dated: 0746 PM ADT MON NOV 06 2006
Evening...Partly cloudy with winds from the south west at 8 mph. Possible periods of mostly cloudy.
Overnight...Partly cloudy with winds from the south west at 8 mph. Possible periods of mostly cloudy.
Original Encoded TAF:
Dated: 0746 PM ADT MON NOV 06 2006
2006/11/06 22:46
CZUM 062246Z 062206 21007KT P6SM SCT007 TEMPO 2206 BKN007=




Powered by Angler Guide.com
Copyright 2007, all rights reserved.